sensor_id;sensor_type;location;lat;lon;timestamp;temperature;humidity
8248;DHT22;4164;49.844;8.830;2023-12-07T00:01:41;3.70;1.00
8248;DHT22;4164;49.844;8.830;2023-12-07T00:04:07;3.60;1.00
8248;DHT22;4164;49.844;8.830;2023-12-07T00:06:33;3.60;1.00
8248;DHT22;4164;49.844;8.830;2023-12-07T00:08:58;3.60;1.00
8248;DHT22;4164;49.844;8.830;2023-12-07T00:11:29;3.60;1.00
8248;DHT22;4164;49.844;8.830;2023-12-07T00:13:54;3.50;1.00
8248;DHT22;4164;49.844;8.830;2023-12-07T00:16:20;3.50;1.00
8248;DHT22;4164;49.844;8.830;2023-12-07T00:18:45;3.40;1.00
8248;DHT22;4164;49.844;8.830;2023-12-07T00:21:11;3.30;1.00
8248;DHT22;4164;49.844;8.830;2023-12-07T00:23:36;3.30;1.00
8248;DHT22;4164;49.844;8.830;2023-12-07T00:26:05;3.30;1.00
8248;DHT22;4164;49.844;8.830;2023-12-07T00:28:30;3.30;1.00
8248;DHT22;4164;49.844;8.830;2023-12-07T00:30:56;3.30;1.00
8248;DHT22;4164;49.844;8.830;2023-12-07T00:33:22;3.30;1.00
8248;DHT22;4164;49.844;8.830;2023-12-07T00:35:48;3.30;1.00
8248;DHT22;4164;49.844;8.830;2023-12-07T00:38:13;3.30;1.00
8248;DHT22;4164;49.844;8.830;2023-12-07T00:40:39;3.30;1.00
8248;DHT22;4164;49.844;8.830;2023-12-07T00:43:05;3.40;1.00
8248;DHT22;4164;49.844;8.830;2023-12-07T00:45:31;3.20;1.00
8248;DHT22;4164;49.844;8.830;2023-12-07T00:47:57;3.20;1.00
8248;DHT22;4164;49.844;8.830;2023-12-07T00:50:22;3.20;5.40
8248;DHT22;4164;49.844;8.830;2023-12-07T00:52:48;3.20;5.00
8248;DHT22;4164;49.844;8.830;2023-12-07T00:55:16;3.20;1.00
8248;DHT22;4164;49.844;8.830;2023-12-07T00:57:42;3.10;1.00
8248;DHT22;4164;49.844;8.830;2023-12-07T01:00:07;3.90;1.00
8248;DHT22;4164;49.844;8.830;2023-12-07T01:02:36;3.00;6.40
8248;DHT22;4164;49.844;8.830;2023-12-07T01:05:02;3.00;1.00
8248;DHT22;4164;49.844;8.830;2023-12-07T01:07:27;2.90;6.90
8248;DHT22;4164;49.844;8.830;2023-12-07T01:09:53;2.90;11.80
8248;DHT22;4164;49.844;8.830;2023-12-07T01:12:19;2.80;7.80
8248;DHT22;4164;49.844;8.830;2023-12-07T01:14:44;2.80;8.50
8248;DHT22;4164;49.844;8.830;2023-12-07T01:17:10;2.60;8.10
8248;DHT22;4164;49.844;8.830;2023-12-07T01:19:35;2.60;1.00
8248;DHT22;4164;49.844;8.830;2023-12-07T01:22:01;2.50;21.90
8248;DHT22;4164;49.844;8.830;2023-12-07T01:24:26;2.30;51.80
8248;DHT22;4164;49.844;8.830;2023-12-07T01:26:52;2.30;99.90
8248;DHT22;4164;49.844;8.830;2023-12-07T01:29:18;2.20;99.90
8248;DHT22;4164;49.844;8.830;2023-12-07T01:31:43;2.00;99.90
8248;DHT22;4164;49.844;8.830;2023-12-07T01:34:10;2.00;78.40
8248;DHT22;4164;49.844;8.830;2023-12-07T01:36:36;2.10;51.00
8248;DHT22;4164;49.844;8.830;2023-12-07T01:39:01;2.20;19.00
8248;DHT22;4164;49.844;8.830;2023-12-07T01:41:27;2.30;1.00
8248;DHT22;4164;49.844;8.830;2023-12-07T01:43:53;2.10;1.00
8248;DHT22;4164;49.844;8.830;2023-12-07T01:46:21;2.00;1.00
8248;DHT22;4164;49.844;8.830;2023-12-07T01:48:47;2.00;1.00
8248;DHT22;4164;49.844;8.830;2023-12-07T01:51:15;1.80;1.00
8248;DHT22;4164;49.844;8.830;2023-12-07T01:53:42;1.90;1.00
8248;DHT22;4164;49.844;8.830;2023-12-07T01:56:08;1.90;1.00
8248;DHT22;4164;49.844;8.830;2023-12-07T01:58:35;1.90;1.00
8248;DHT22;4164;49.844;8.830;2023-12-07T02:01:02;2.00;1.00
8248;DHT22;4164;49.844;8.830;2023-12-07T02:03:30;2.00;1.00
8248;DHT22;4164;49.844;8.830;2023-12-07T02:05:57;2.00;1.00
8248;DHT22;4164;49.844;8.830;2023-12-07T02:08:23;2.10;1.00
8248;DHT22;4164;49.844;8.830;2023-12-07T02:10:49;2.00;1.00
8248;DHT22;4164;49.844;8.830;2023-12-07T02:13:14;2.00;1.00
8248;DHT22;4164;49.844;8.830;2023-12-07T02:15:40;2.00;1.00
8248;DHT22;4164;49.844;8.830;2023-12-07T02:18:36;1.90;1.00
8248;DHT22;4164;49.844;8.830;2023-12-07T02:21:15;1.80;1.00
8248;DHT22;4164;49.844;8.830;2023-12-07T02:23:44;1.80;1.00
8248;DHT22;4164;49.844;8.830;2023-12-07T02:26:13;1.70;1.00
8248;DHT22;4164;49.844;8.830;2023-12-07T02:28:43;1.70;1.00
8248;DHT22;4164;49.844;8.830;2023-12-07T02:31:09;1.80;1.00
8248;DHT22;4164;49.844;8.830;2023-12-07T02:33:34;1.80;1.00
8248;DHT22;4164;49.844;8.830;2023-12-07T02:36:00;1.70;1.00
8248;DHT22;4164;49.844;8.830;2023-12-07T02:38:26;1.60;1.00
8248;DHT22;4164;49.844;8.830;2023-12-07T02:40:57;1.40;1.00
8248;DHT22;4164;49.844;8.830;2023-12-07T02:43:24;1.40;1.00
8248;DHT22;4164;49.844;8.830;2023-12-07T02:45:49;1.30;1.00
8248;DHT22;4164;49.844;8.830;2023-12-07T02:48:20;1.50;1.00
8248;DHT22;4164;49.844;8.830;2023-12-07T02:50:45;1.50;11.50
8248;DHT22;4164;49.844;8.830;2023-12-07T02:53:11;1.50;26.30
8248;DHT22;4164;49.844;8.830;2023-12-07T02:55:36;1.50;39.90
8248;DHT22;4164;49.844;8.830;2023-12-07T02:58:02;1.60;37.00
8248;DHT22;4164;49.844;8.830;2023-12-07T03:00:27;1.60;15.40
8248;DHT22;4164;49.844;8.830;2023-12-07T03:02:53;1.60;1.00
8248;DHT22;4164;49.844;8.830;2023-12-07T03:05:18;1.70;1.00
8248;DHT22;4164;49.844;8.830;2023-12-07T03:07:45;1.60;1.00
8248;DHT22;4164;49.844;8.830;2023-12-07T03:10:11;1.60;1.00
8248;DHT22;4164;49.844;8.830;2023-12-07T03:12:37;1.60;1.00
8248;DHT22;4164;49.844;8.830;2023-12-07T03:15:02;1.60;1.00
8248;DHT22;4164;49.844;8.830;2023-12-07T03:17:29;1.30;1.00
8248;DHT22;4164;49.844;8.830;2023-12-07T03:19:58;1.30;25.90
8248;DHT22;4164;49.844;8.830;2023-12-07T03:22:23;1.20;1.70
8248;DHT22;4164;49.844;8.830;2023-12-07T03:24:51;1.20;1.00
8248;DHT22;4164;49.844;8.830;2023-12-07T03:27:17;1.00;1.00
8248;DHT22;4164;49.844;8.830;2023-12-07T03:29:43;1.00;19.90
8248;DHT22;4164;49.844;8.830;2023-12-07T03:32:08;0.90;45.40
8248;DHT22;4164;49.844;8.830;2023-12-07T03:34:34;0.90;99.90
8248;DHT22;4164;49.844;8.830;2023-12-07T03:36:59;1.00;99.90
8248;DHT22;4164;49.844;8.830;2023-12-07T03:39:25;1.10;49.10
8248;DHT22;4164;49.844;8.830;2023-12-07T03:41:51;0.70;99.90
8248;DHT22;4164;49.844;8.830;2023-12-07T03:44:17;0.70;99.90
8248;DHT22;4164;49.844;8.830;2023-12-07T03:46:42;0.70;99.90
8248;DHT22;4164;49.844;8.830;2023-12-07T03:49:08;0.60;99.90
8248;DHT22;4164;49.844;8.830;2023-12-07T03:51:33;0.50;99.90
8248;DHT22;4164;49.844;8.830;2023-12-07T03:54:02;0.70;99.90
8248;DHT22;4164;49.844;8.830;2023-12-07T03:56:29;0.90;99.90
8248;DHT22;4164;49.844;8.830;2023-12-07T03:58:55;0.90;99.90
8248;DHT22;4164;49.844;8.830;2023-12-07T04:01:25;0.70;99.90
8248;DHT22;4164;49.844;8.830;2023-12-07T04:03:51;0.60;99.90
8248;DHT22;4164;49.844;8.830;2023-12-07T04:06:17;0.70;99.90
8248;DHT22;4164;49.844;8.830;2023-12-07T04:08:44;0.70;99.90
8248;DHT22;4164;49.844;8.830;2023-12-07T04:11:09;0.80;99.90
8248;DHT22;4164;49.844;8.830;2023-12-07T04:13:35;1.20;38.90
8248;DHT22;4164;49.844;8.830;2023-12-07T04:16:00;0.50;1.00
8248;DHT22;4164;49.844;8.830;2023-12-07T04:18:26;0.40;1.00
8248;DHT22;4164;49.844;8.830;2023-12-07T04:20:52;0.60;4.00
8248;DHT22;4164;49.844;8.830;2023-12-07T04:23:17;0.80;77.50
8248;DHT22;4164;49.844;8.830;2023-12-07T04:25:46;0.80;99.90
8248;DHT22;4164;49.844;8.830;2023-12-07T04:28:11;0.70;99.90
8248;DHT22;4164;49.844;8.830;2023-12-07T04:30:37;0.40;99.90
8248;DHT22;4164;49.844;8.830;2023-12-07T04:33:03;0.60;99.90
8248;DHT22;4164;49.844;8.830;2023-12-07T04:35:30;0.70;85.90
8248;DHT22;4164;49.844;8.830;2023-12-07T04:37:55;0.70;50.70
8248;DHT22;4164;49.844;8.830;2023-12-07T04:40:21;0.70;53.60
8248;DHT22;4164;49.844;8.830;2023-12-07T04:42:46;0.70;21.90
8248;DHT22;4164;49.844;8.830;2023-12-07T04:45:15;0.60;8.10
8248;DHT22;4164;49.844;8.830;2023-12-07T04:47:40;0.60;27.20
8248;DHT22;4164;49.844;8.830;2023-12-07T04:50:07;0.50;97.40
8248;DHT22;4164;49.844;8.830;2023-12-07T04:52:32;0.60;99.90
8248;DHT22;4164;49.844;8.830;2023-12-07T04:54:59;0.50;99.90
8248;DHT22;4164;49.844;8.830;2023-12-07T04:57:25;0.40;99.90
8248;DHT22;4164;49.844;8.830;2023-12-07T04:59:50;0.30;99.90
8248;DHT22;4164;49.844;8.830;2023-12-07T05:02:16;0.30;99.90
8248;DHT22;4164;49.844;8.830;2023-12-07T05:04:42;0.40;99.90
8248;DHT22;4164;49.844;8.830;2023-12-07T05:07:08;0.40;99.90
8248;DHT22;4164;49.844;8.830;2023-12-07T05:09:34;0.60;99.90
8248;DHT22;4164;49.844;8.830;2023-12-07T05:11:59;0.50;99.90
8248;DHT22;4164;49.844;8.830;2023-12-07T05:14:25;0.50;99.90
8248;DHT22;4164;49.844;8.830;2023-12-07T05:16:50;0.40;99.90
8248;DHT22;4164;49.844;8.830;2023-12-07T05:19:23;0.40;99.90
8248;DHT22;4164;49.844;8.830;2023-12-07T05:21:49;0.40;99.90
8248;DHT22;4164;49.844;8.830;2023-12-07T05:24:15;0.60;99.90
8248;DHT22;4164;49.844;8.830;2023-12-07T05:26:42;0.60;99.90
8248;DHT22;4164;49.844;8.830;2023-12-07T05:29:08;0.70;99.90
8248;DHT22;4164;49.844;8.830;2023-12-07T05:31:33;0.80;99.90
8248;DHT22;4164;49.844;8.830;2023-12-07T05:33:59;0.80;99.90
8248;DHT22;4164;49.844;8.830;2023-12-07T05:36:24;0.80;99.90
8248;DHT22;4164;49.844;8.830;2023-12-07T05:38:57;0.80;99.90
8248;DHT22;4164;49.844;8.830;2023-12-07T05:41:23;0.90;99.90
8248;DHT22;4164;49.844;8.830;2023-12-07T05:43:49;0.90;99.90
8248;DHT22;4164;49.844;8.830;2023-12-07T05:46:14;0.90;99.90
8248;DHT22;4164;49.844;8.830;2023-12-07T05:48:41;0.90;99.90
8248;DHT22;4164;49.844;8.830;2023-12-07T05:51:12;0.80;99.90
8248;DHT22;4164;49.844;8.830;2023-12-07T05:53:38;0.80;99.90
8248;DHT22;4164;49.844;8.830;2023-12-07T05:56:04;1.10;99.90
8248;DHT22;4164;49.844;8.830;2023-12-07T05:58:33;1.10;99.90
8248;DHT22;4164;49.844;8.830;2023-12-07T06:01:00;1.10;99.90
8248;DHT22;4164;49.844;8.830;2023-12-07T06:03:26;1.10;99.90
8248;DHT22;4164;49.844;8.830;2023-12-07T06:05:52;1.50;99.90
8248;DHT22;4164;49.844;8.830;2023-12-07T06:08:18;1.10;99.90
8248;DHT22;4164;49.844;8.830;2023-12-07T06:10:43;1.10;99.90
8248;DHT22;4164;49.844;8.830;2023-12-07T06:13:09;1.10;99.90
8248;DHT22;4164;49.844;8.830;2023-12-07T06:15:35;1.20;99.90
8248;DHT22;4164;49.844;8.830;2023-12-07T06:18:01;1.20;99.90
8248;DHT22;4164;49.844;8.830;2023-12-07T06:20:27;1.30;99.90
8248;DHT22;4164;49.844;8.830;2023-12-07T06:22:55;1.20;99.90
8248;DHT22;4164;49.844;8.830;2023-12-07T06:25:21;1.10;99.90
8248;DHT22;4164;49.844;8.830;2023-12-07T06:27:46;1.20;99.90
8248;DHT22;4164;49.844;8.830;2023-12-07T06:30:12;1.10;99.90
8248;DHT22;4164;49.844;8.830;2023-12-07T06:32:38;1.20;99.90
8248;DHT22;4164;49.844;8.830;2023-12-07T06:35:04;1.10;99.90
8248;DHT22;4164;49.844;8.830;2023-12-07T06:37:33;1.20;99.90
8248;DHT22;4164;49.844;8.830;2023-12-07T06:39:58;1.00;99.90
8248;DHT22;4164;49.844;8.830;2023-12-07T06:42:25;0.90;99.90
8248;DHT22;4164;49.844;8.830;2023-12-07T06:44:51;1.00;99.90
8248;DHT22;4164;49.844;8.830;2023-12-07T06:47:17;1.00;99.90
8248;DHT22;4164;49.844;8.830;2023-12-07T06:49:43;1.20;99.90
8248;DHT22;4164;49.844;8.830;2023-12-07T06:52:09;1.20;67.20
8248;DHT22;4164;49.844;8.830;2023-12-07T06:54:36;1.10;8.40
8248;DHT22;4164;49.844;8.830;2023-12-07T06:57:02;1.20;6.10
8248;DHT22;4164;49.844;8.830;2023-12-07T06:59:27;1.10;1.00
8248;DHT22;4164;49.844;8.830;2023-12-07T07:01:53;1.10;1.00
8248;DHT22;4164;49.844;8.830;2023-12-07T07:04:23;1.30;1.00
8248;DHT22;4164;49.844;8.830;2023-12-07T07:06:48;1.40;1.00
8248;DHT22;4164;49.844;8.830;2023-12-07T07:09:14;1.40;1.00
8248;DHT22;4164;49.844;8.830;2023-12-07T07:11:41;1.30;1.00
8248;DHT22;4164;49.844;8.830;2023-12-07T07:14:07;1.30;1.90
8248;DHT22;4164;49.844;8.830;2023-12-07T07:16:37;1.40;24.70
8248;DHT22;4164;49.844;8.830;2023-12-07T07:19:03;1.40;45.90
8248;DHT22;4164;49.844;8.830;2023-12-07T07:21:29;1.50;54.80
8248;DHT22;4164;49.844;8.830;2023-12-07T07:23:54;1.60;46.10
8248;DHT22;4164;49.844;8.830;2023-12-07T07:26:20;1.50;40.30
8248;DHT22;4164;49.844;8.830;2023-12-07T07:28:45;1.50;79.30
8248;DHT22;4164;49.844;8.830;2023-12-07T07:31:11;1.40;96.90
8248;DHT22;4164;49.844;8.830;2023-12-07T07:33:36;1.40;99.90
8248;DHT22;4164;49.844;8.830;2023-12-07T07:36:02;1.40;99.90
8248;DHT22;4164;49.844;8.830;2023-12-07T07:38:28;1.50;99.90
8248;DHT22;4164;49.844;8.830;2023-12-07T07:40:53;1.60;99.90
8248;DHT22;4164;49.844;8.830;2023-12-07T07:43:19;1.60;99.90
8248;DHT22;4164;49.844;8.830;2023-12-07T07:45:44;1.70;99.90
8248;DHT22;4164;49.844;8.830;2023-12-07T07:48:11;1.70;99.90
8248;DHT22;4164;49.844;8.830;2023-12-07T07:50:37;1.80;99.90
8248;DHT22;4164;49.844;8.830;2023-12-07T07:53:03;1.70;99.90
8248;DHT22;4164;49.844;8.830;2023-12-07T07:55:29;1.60;99.90
8248;DHT22;4164;49.844;8.830;2023-12-07T07:57:55;1.60;99.90
8248;DHT22;4164;49.844;8.830;2023-12-07T08:00:21;1.60;99.90
8248;DHT22;4164;49.844;8.830;2023-12-07T08:02:46;1.60;99.90
8248;DHT22;4164;49.844;8.830;2023-12-07T08:05:12;1.60;99.90
8248;DHT22;4164;49.844;8.830;2023-12-07T08:07:39;1.50;99.90
8248;DHT22;4164;49.844;8.830;2023-12-07T08:10:06;1.60;99.90
8248;DHT22;4164;49.844;8.830;2023-12-07T08:15:00;1.50;99.90
8248;DHT22;4164;49.844;8.830;2023-12-07T08:17:26;1.40;99.90
8248;DHT22;4164;49.844;8.830;2023-12-07T08:19:52;1.50;99.90
8248;DHT22;4164;49.844;8.830;2023-12-07T08:22:18;1.60;99.90
8248;DHT22;4164;49.844;8.830;2023-12-07T08:24:44;1.60;99.90
8248;DHT22;4164;49.844;8.830;2023-12-07T08:27:09;1.70;99.90
8248;DHT22;4164;49.844;8.830;2023-12-07T08:29:35;1.70;94.30
8248;DHT22;4164;49.844;8.830;2023-12-07T08:32:04;1.70;81.20
8248;DHT22;4164;49.844;8.830;2023-12-07T08:34:30;1.80;75.40
8248;DHT22;4164;49.844;8.830;2023-12-07T08:36:58;1.70;16.80
8248;DHT22;4164;49.844;8.830;2023-12-07T08:39:24;1.50;4.10
8248;DHT22;4164;49.844;8.830;2023-12-07T08:41:50;1.40;29.20
8248;DHT22;4164;49.844;8.830;2023-12-07T08:44:17;1.30;82.00
8248;DHT22;4164;49.844;8.830;2023-12-07T08:46:42;1.40;99.90
8248;DHT22;4164;49.844;8.830;2023-12-07T08:49:10;1.50;99.90
8248;DHT22;4164;49.844;8.830;2023-12-07T08:51:36;1.50;99.90
8248;DHT22;4164;49.844;8.830;2023-12-07T08:54:02;1.60;99.90
8248;DHT22;4164;49.844;8.830;2023-12-07T08:56:27;1.60;99.90
8248;DHT22;4164;49.844;8.830;2023-12-07T08:58:53;1.80;99.90
8248;DHT22;4164;49.844;8.830;2023-12-07T09:01:18;2.20;99.90
8248;DHT22;4164;49.844;8.830;2023-12-07T09:03:44;2.40;69.40
8248;DHT22;4164;49.844;8.830;2023-12-07T09:06:09;3.20;99.90
8248;DHT22;4164;49.844;8.830;2023-12-07T09:08:35;3.50;1.00
8248;DHT22;4164;49.844;8.830;2023-12-07T09:11:00;5.40;1.00
8248;DHT22;4164;49.844;8.830;2023-12-07T09:13:26;7.30;1.00
8248;DHT22;4164;49.844;8.830;2023-12-07T09:15:51;6.60;1.00
8248;DHT22;4164;49.844;8.830;2023-12-07T09:18:17;6.30;1.00
8248;DHT22;4164;49.844;8.830;2023-12-07T09:20:42;5.40;1.00
8248;DHT22;4164;49.844;8.830;2023-12-07T09:23:12;8.30;1.00
8248;DHT22;4164;49.844;8.830;2023-12-07T09:25:40;9.00;1.00
8248;DHT22;4164;49.844;8.830;2023-12-07T09:28:06;9.80;1.00
8248;DHT22;4164;49.844;8.830;2023-12-07T09:30:32;11.30;1.00
8248;DHT22;4164;49.844;8.830;2023-12-07T09:33:01;12.60;1.00
8248;DHT22;4164;49.844;8.830;2023-12-07T09:35:30;13.30;1.00
8248;DHT22;4164;49.844;8.830;2023-12-07T09:37:55;13.40;1.00
8248;DHT22;4164;49.844;8.830;2023-12-07T09:40:22;11.50;99.90
8248;DHT22;4164;49.844;8.830;2023-12-07T09:42:49;9.20;99.90
8248;DHT22;4164;49.844;8.830;2023-12-07T09:45:15;9.30;99.90
8248;DHT22;4164;49.844;8.830;2023-12-07T09:47:51;10.70;1.00
8248;DHT22;4164;49.844;8.830;2023-12-07T09:50:19;12.80;99.90
8248;DHT22;4164;49.844;8.830;2023-12-07T09:52:48;14.00;99.90
8248;DHT22;4164;49.844;8.830;2023-12-07T09:55:16;14.80;99.90
8248;DHT22;4164;49.844;8.830;2023-12-07T09:57:42;14.80;99.90
8248;DHT22;4164;49.844;8.830;2023-12-07T10:00:08;15.10;99.90
8248;DHT22;4164;49.844;8.830;2023-12-07T10:02:44;14.70;99.90
8248;DHT22;4164;49.844;8.830;2023-12-07T10:05:10;14.30;99.90
8248;DHT22;4164;49.844;8.830;2023-12-07T10:07:41;14.50;99.90
8248;DHT22;4164;49.844;8.830;2023-12-07T10:10:07;15.80;99.90
8248;DHT22;4164;49.844;8.830;2023-12-07T10:12:34;16.90;99.90
8248;DHT22;4164;49.844;8.830;2023-12-07T10:15:16;18.00;99.90
8248;DHT22;4164;49.844;8.830;2023-12-07T10:17:46;19.00;99.90
8248;DHT22;4164;49.844;8.830;2023-12-07T10:20:26;19.10;99.90
8248;DHT22;4164;49.844;8.830;2023-12-07T10:23:06;18.70;99.90
8248;DHT22;4164;49.844;8.830;2023-12-07T10:25:35;18.60;99.90
8248;DHT22;4164;49.844;8.830;2023-12-07T10:28:01;18.50;99.90
8248;DHT22;4164;49.844;8.830;2023-12-07T10:30:29;18.20;99.90
8248;DHT22;4164;49.844;8.830;2023-12-07T10:32:55;18.50;99.90
8248;DHT22;4164;49.844;8.830;2023-12-07T10:35:21;18.20;99.90
8248;DHT22;4164;49.844;8.830;2023-12-07T10:37:46;18.40;99.90
8248;DHT22;4164;49.844;8.830;2023-12-07T10:40:12;18.10;99.90
8248;DHT22;4164;49.844;8.830;2023-12-07T10:42:40;19.80;99.90
8248;DHT22;4164;49.844;8.830;2023-12-07T10:45:07;19.20;99.90
8248;DHT22;4164;49.844;8.830;2023-12-07T10:47:35;20.00;99.90
8248;DHT22;4164;49.844;8.830;2023-12-07T10:50:03;18.10;99.90
8248;DHT22;4164;49.844;8.830;2023-12-07T10:52:31;16.90;99.90
8248;DHT22;4164;49.844;8.830;2023-12-07T10:55:03;18.40;99.90
8248;DHT22;4164;49.844;8.830;2023-12-07T10:57:35;17.30;99.90
8248;DHT22;4164;49.844;8.830;2023-12-07T11:00:03;16.70;99.90
8248;DHT22;4164;49.844;8.830;2023-12-07T11:02:29;17.20;99.90
8248;DHT22;4164;49.844;8.830;2023-12-07T11:04:58;17.70;99.90
8248;DHT22;4164;49.844;8.830;2023-12-07T11:07:32;17.20;99.90
8248;DHT22;4164;49.844;8.830;2023-12-07T11:10:07;16.80;99.90
8248;DHT22;4164;49.844;8.830;2023-12-07T11:12:54;17.00;99.90
8248;DHT22;4164;49.844;8.830;2023-12-07T11:15:21;17.80;99.90
8248;DHT22;4164;49.844;8.830;2023-12-07T11:17:53;16.50;99.90
8248;DHT22;4164;49.844;8.830;2023-12-07T11:20:41;15.50;99.90
8248;DHT22;4164;49.844;8.830;2023-12-07T11:23:08;13.90;99.90
8248;DHT22;4164;49.844;8.830;2023-12-07T11:25:33;13.60;99.90
8248;DHT22;4164;49.844;8.830;2023-12-07T11:28:06;12.60;99.90
8248;DHT22;4164;49.844;8.830;2023-12-07T11:30:35;11.20;99.90
8248;DHT22;4164;49.844;8.830;2023-12-07T11:33:03;9.80;99.90
8248;DHT22;4164;49.844;8.830;2023-12-07T11:35:29;9.20;99.90
8248;DHT22;4164;49.844;8.830;2023-12-07T11:38:06;10.50;99.90
8248;DHT22;4164;49.844;8.830;2023-12-07T11:40:36;13.30;99.90
8248;DHT22;4164;49.844;8.830;2023-12-07T11:43:02;11.70;99.90
8248;DHT22;4164;49.844;8.830;2023-12-07T11:45:41;10.00;99.90
8248;DHT22;4164;49.844;8.830;2023-12-07T11:48:08;9.10;99.90
8248;DHT22;4164;49.844;8.830;2023-12-07T11:50:34;10.90;99.90
8248;DHT22;4164;49.844;8.830;2023-12-07T11:53:10;11.50;99.90
8248;DHT22;4164;49.844;8.830;2023-12-07T11:55:35;11.50;99.90
8248;DHT22;4164;49.844;8.830;2023-12-07T11:58:01;11.20;99.90
8248;DHT22;4164;49.844;8.830;2023-12-07T12:00:26;9.50;99.90
8248;DHT22;4164;49.844;8.830;2023-12-07T12:02:52;8.60;99.90
8248;DHT22;4164;49.844;8.830;2023-12-07T12:05:17;7.30;99.90
8248;DHT22;4164;49.844;8.830;2023-12-07T12:07:43;6.60;99.90
8248;DHT22;4164;49.844;8.830;2023-12-07T12:10:08;6.60;99.90
8248;DHT22;4164;49.844;8.830;2023-12-07T12:12:34;6.50;99.90
8248;DHT22;4164;49.844;8.830;2023-12-07T12:15:00;6.60;99.90
8248;DHT22;4164;49.844;8.830;2023-12-07T12:17:25;6.30;99.90
8248;DHT22;4164;49.844;8.830;2023-12-07T12:19:51;6.70;99.90
8248;DHT22;4164;49.844;8.830;2023-12-07T12:22:20;6.60;99.90
8248;DHT22;4164;49.844;8.830;2023-12-07T12:24:46;6.70;99.90
8248;DHT22;4164;49.844;8.830;2023-12-07T12:27:13;6.40;99.90
8248;DHT22;4164;49.844;8.830;2023-12-07T12:29:42;6.90;99.90
8248;DHT22;4164;49.844;8.830;2023-12-07T12:32:08;6.80;99.90
8248;DHT22;4164;49.844;8.830;2023-12-07T12:34:34;6.90;99.90
8248;DHT22;4164;49.844;8.830;2023-12-07T12:37:00;7.30;99.90
8248;DHT22;4164;49.844;8.830;2023-12-07T12:39:29;7.50;99.90
8248;DHT22;4164;49.844;8.830;2023-12-07T12:41:56;7.60;99.90
8248;DHT22;4164;49.844;8.830;2023-12-07T12:44:21;7.50;99.90
8248;DHT22;4164;49.844;8.830;2023-12-07T12:46:47;7.90;99.90
8248;DHT22;4164;49.844;8.830;2023-12-07T12:49:12;8.20;99.90
8248;DHT22;4164;49.844;8.830;2023-12-07T12:51:38;8.00;99.90
8248;DHT22;4164;49.844;8.830;2023-12-07T12:54:04;8.40;99.90
8248;DHT22;4164;49.844;8.830;2023-12-07T12:56:29;8.20;99.90
8248;DHT22;4164;49.844;8.830;2023-12-07T12:58:55;8.40;99.90
8248;DHT22;4164;49.844;8.830;2023-12-07T13:01:23;7.80;99.90
8248;DHT22;4164;49.844;8.830;2023-12-07T13:03:49;7.30;99.90
8248;DHT22;4164;49.844;8.830;2023-12-07T13:06:16;6.80;99.90
8248;DHT22;4164;49.844;8.830;2023-12-07T13:08:46;6.60;99.90
8248;DHT22;4164;49.844;8.830;2023-12-07T13:11:15;6.30;99.90
8248;DHT22;4164;49.844;8.830;2023-12-07T13:13:41;6.20;99.90
8248;DHT22;4164;49.844;8.830;2023-12-07T13:16:07;6.40;99.90
8248;DHT22;4164;49.844;8.830;2023-12-07T13:18:32;6.70;99.90
8248;DHT22;4164;49.844;8.830;2023-12-07T13:20:58;6.80;99.90
8248;DHT22;4164;49.844;8.830;2023-12-07T13:23:25;6.50;99.90
8248;DHT22;4164;49.844;8.830;2023-12-07T13:25:50;5.90;99.90
8248;DHT22;4164;49.844;8.830;2023-12-07T13:28:16;6.00;99.90
8248;DHT22;4164;49.844;8.830;2023-12-07T13:30:42;5.90;99.90
8248;DHT22;4164;49.844;8.830;2023-12-07T13:33:07;5.80;99.90
8248;DHT22;4164;49.844;8.830;2023-12-07T13:35:34;5.50;99.90
8248;DHT22;4164;49.844;8.830;2023-12-07T13:38:00;5.40;99.90
8248;DHT22;4164;49.844;8.830;2023-12-07T13:40:25;5.40;99.90
8248;DHT22;4164;49.844;8.830;2023-12-07T13:42:52;5.20;99.90
8248;DHT22;4164;49.844;8.830;2023-12-07T13:45:18;5.00;99.90
8248;DHT22;4164;49.844;8.830;2023-12-07T13:47:43;6.00;99.90
8248;DHT22;4164;49.844;8.830;2023-12-07T13:50:10;5.00;99.90
8248;DHT22;4164;49.844;8.830;2023-12-07T13:52:38;4.80;99.90
8248;DHT22;4164;49.844;8.830;2023-12-07T13:55:03;4.60;99.90
8248;DHT22;4164;49.844;8.830;2023-12-07T13:57:30;4.50;99.90
8248;DHT22;4164;49.844;8.830;2023-12-07T13:59:55;4.60;99.90
8248;DHT22;4164;49.844;8.830;2023-12-07T14:02:22;4.60;99.90
8248;DHT22;4164;49.844;8.830;2023-12-07T14:04:48;4.30;99.90
8248;DHT22;4164;49.844;8.830;2023-12-07T14:07:21;4.40;99.90
8248;DHT22;4164;49.844;8.830;2023-12-07T14:09:50;4.50;99.90
8248;DHT22;4164;49.844;8.830;2023-12-07T14:12:16;4.50;99.90
8248;DHT22;4164;49.844;8.830;2023-12-07T14:14:48;4.50;99.90
8248;DHT22;4164;49.844;8.830;2023-12-07T14:17:14;4.30;99.90
8248;DHT22;4164;49.844;8.830;2023-12-07T14:19:40;4.10;99.90
8248;DHT22;4164;49.844;8.830;2023-12-07T14:22:06;4.00;99.90
8248;DHT22;4164;49.844;8.830;2023-12-07T14:24:35;3.80;99.90
8248;DHT22;4164;49.844;8.830;2023-12-07T14:27:02;3.60;99.90
8248;DHT22;4164;49.844;8.830;2023-12-07T14:29:29;3.60;99.90
8248;DHT22;4164;49.844;8.830;2023-12-07T14:31:55;3.50;99.90
8248;DHT22;4164;49.844;8.830;2023-12-07T14:34:20;3.40;1.00
8248;DHT22;4164;49.844;8.830;2023-12-07T14:36:46;3.50;1.00
8248;DHT22;4164;49.844;8.830;2023-12-07T14:39:12;3.40;1.00
8248;DHT22;4164;49.844;8.830;2023-12-07T14:41:48;3.40;1.00
8248;DHT22;4164;49.844;8.830;2023-12-07T14:44:18;3.30;1.00
8248;DHT22;4164;49.844;8.830;2023-12-07T14:46:44;3.30;1.00
8248;DHT22;4164;49.844;8.830;2023-12-07T14:49:14;3.40;1.00
8248;DHT22;4164;49.844;8.830;2023-12-07T14:51:40;3.30;1.00
8248;DHT22;4164;49.844;8.830;2023-12-07T14:54:06;3.00;1.00
8248;DHT22;4164;49.844;8.830;2023-12-07T14:56:32;2.90;1.00
8248;DHT22;4164;49.844;8.830;2023-12-07T14:59:01;2.80;1.00
8248;DHT22;4164;49.844;8.830;2023-12-07T15:01:27;2.80;1.00
8248;DHT22;4164;49.844;8.830;2023-12-07T15:03:52;2.60;1.00
8248;DHT22;4164;49.844;8.830;2023-12-07T15:06:18;2.40;1.00
8248;DHT22;4164;49.844;8.830;2023-12-07T15:08:44;2.30;1.00
8248;DHT22;4164;49.844;8.830;2023-12-07T15:11:10;2.30;1.00
8248;DHT22;4164;49.844;8.830;2023-12-07T15:13:36;2.20;1.00
8248;DHT22;4164;49.844;8.830;2023-12-07T15:16:02;2.30;1.00
8248;DHT22;4164;49.844;8.830;2023-12-07T15:18:32;2.20;1.00
8248;DHT22;4164;49.844;8.830;2023-12-07T15:21:00;2.20;1.00
8248;DHT22;4164;49.844;8.830;2023-12-07T15:23:27;2.20;1.00
8248;DHT22;4164;49.844;8.830;2023-12-07T15:25:52;2.20;1.00
8248;DHT22;4164;49.844;8.830;2023-12-07T15:28:18;2.20;1.00
8248;DHT22;4164;49.844;8.830;2023-12-07T15:30:43;2.20;1.00
8248;DHT22;4164;49.844;8.830;2023-12-07T15:33:09;4.00;1.00
8248;DHT22;4164;49.844;8.830;2023-12-07T15:35:35;2.00;1.00
8248;DHT22;4164;49.844;8.830;2023-12-07T15:38:00;2.10;1.00
8248;DHT22;4164;49.844;8.830;2023-12-07T15:40:26;2.00;1.00
8248;DHT22;4164;49.844;8.830;2023-12-07T15:42:51;2.00;1.00
8248;DHT22;4164;49.844;8.830;2023-12-07T15:45:17;2.20;1.00
8248;DHT22;4164;49.844;8.830;2023-12-07T15:47:42;2.20;1.00
8248;DHT22;4164;49.844;8.830;2023-12-07T15:50:08;2.20;1.00
8248;DHT22;4164;49.844;8.830;2023-12-07T15:52:36;2.10;1.00
8248;DHT22;4164;49.844;8.830;2023-12-07T15:55:02;2.10;1.00
8248;DHT22;4164;49.844;8.830;2023-12-07T15:57:28;2.10;1.00
8248;DHT22;4164;49.844;8.830;2023-12-07T15:59:53;1.90;1.00
8248;DHT22;4164;49.844;8.830;2023-12-07T16:02:19;1.70;1.00
8248;DHT22;4164;49.844;8.830;2023-12-07T16:04:45;1.50;1.00
8248;DHT22;4164;49.844;8.830;2023-12-07T16:07:14;1.50;1.00
8248;DHT22;4164;49.844;8.830;2023-12-07T16:09:40;1.50;1.00
8248;DHT22;4164;49.844;8.830;2023-12-07T16:12:08;1.40;1.00
8248;DHT22;4164;49.844;8.830;2023-12-07T16:14:37;1.50;1.00
8248;DHT22;4164;49.844;8.830;2023-12-07T16:17:04;1.50;1.00
8248;DHT22;4164;49.844;8.830;2023-12-07T16:19:30;1.50;1.00
8248;DHT22;4164;49.844;8.830;2023-12-07T16:21:56;1.60;1.00